ESOK 212250Z AUTO 21006KT 9999 NCD 10/09 Q1022